createdAt,value
2018-07-24T00:01:40.198Z,88.50
2018-07-24T00:04:13.863Z,89.20
2018-07-24T00:06:45.429Z,89.70
2018-07-24T00:09:16.544Z,89.80
2018-07-24T00:11:47.683Z,89.90
2018-07-24T00:14:18.938Z,90.10
2018-07-24T00:16:50.221Z,90.30
2018-07-24T00:21:52.090Z,90.60
2018-07-24T00:24:23.222Z,90.60
2018-07-24T00:26:54.442Z,90.60
2018-07-24T00:29:25.602Z,90.60
2018-07-24T00:31:56.709Z,90.70
2018-07-24T00:34:27.803Z,90.70
2018-07-24T00:39:29.283Z,90.90
2018-07-24T00:42:00.292Z,90.90
2018-07-24T00:44:31.399Z,91.10
2018-07-24T00:47:02.469Z,91.10
2018-07-24T00:49:33.520Z,91.10
2018-07-24T00:52:04.574Z,91.30
2018-07-24T00:54:35.760Z,91.20
2018-07-24T00:57:07.316Z,91.30
2018-07-24T00:59:38.454Z,91.20
2018-07-24T01:02:09.881Z,91.20
2018-07-24T01:04:41.537Z,91.20
2018-07-24T01:07:13.921Z,91.00
2018-07-24T01:09:46.417Z,90.30
2018-07-24T01:12:19.018Z,90.60
2018-07-24T01:14:50.953Z,90.40
2018-07-24T01:17:22.870Z,90.40
2018-07-24T01:19:54.319Z,90.50
2018-07-24T01:22:25.498Z,90.70
2018-07-24T01:24:57.974Z,90.80
2018-07-24T01:27:29.588Z,90.80
2018-07-24T01:30:00.635Z,90.90
2018-07-24T01:32:31.385Z,90.90
2018-07-24T01:35:02.184Z,91.10
2018-07-24T01:37:32.895Z,91.00
2018-07-24T01:40:03.800Z,91.20
2018-07-24T01:42:34.502Z,91.30
2018-07-24T01:47:35.836Z,91.90
2018-07-24T01:50:06.726Z,91.50
2018-07-24T01:52:37.449Z,91.60
2018-07-24T01:57:39.065Z,92.00
2018-07-24T02:00:14.181Z,92.00
2018-07-24T02:02:44.999Z,92.10
2018-07-24T02:05:15.777Z,92.30
2018-07-24T02:07:46.475Z,92.40
2018-07-24T02:10:17.280Z,92.60
2018-07-24T02:12:48.074Z,92.90
2018-07-24T02:15:18.899Z,93.10
2018-07-24T02:17:49.681Z,93.20
2018-07-24T02:20:20.473Z,93.10
2018-07-24T02:22:51.295Z,93.20
2018-07-24T02:25:22.020Z,93.60
2018-07-24T02:27:52.920Z,93.20
2018-07-24T02:30:23.879Z,93.20
2018-07-24T02:32:54.616Z,93.20
2018-07-24T02:35:25.335Z,93.30
2018-07-24T02:37:56.084Z,93.70
2018-07-24T02:40:27.098Z,93.40
2018-07-24T02:42:57.975Z,93.30
2018-07-24T02:45:28.814Z,93.70
2018-07-24T02:47:59.633Z,93.10
2018-07-24T02:50:30.458Z,93.10
2018-07-24T02:53:01.275Z,93.10
2018-07-24T02:55:32.057Z,93.30
2018-07-24T02:58:02.849Z,93.40
2018-07-24T03:00:33.628Z,93.60
2018-07-24T03:03:04.493Z,93.70
2018-07-24T03:05:35.326Z,93.70
2018-07-24T03:08:06.170Z,93.70
2018-07-24T03:10:37.028Z,93.80
2018-07-24T03:13:07.866Z,94.00
2018-07-24T03:20:39.251Z,94.40
2018-07-24T03:23:10.079Z,94.50
2018-07-24T03:25:40.883Z,94.60
2018-07-24T03:28:11.848Z,94.50
2018-07-24T03:30:42.740Z,94.70
2018-07-24T03:33:13.588Z,94.80
2018-07-24T03:35:44.367Z,94.80
2018-07-24T03:38:15.140Z,94.90
2018-07-24T03:40:45.965Z,95.10
2018-07-24T03:43:16.696Z,94.80
2018-07-24T03:45:47.630Z,95.00
2018-07-24T03:48:18.500Z,94.70
2018-07-24T03:50:49.349Z,94.50
2018-07-24T03:53:20.382Z,94.50
2018-07-24T03:55:51.106Z,94.40
2018-07-24T03:58:22.077Z,94.30
2018-07-24T04:00:53.252Z,94.30
2018-07-24T04:03:24.025Z,94.20
2018-07-24T04:05:54.809Z,94.10
2018-07-24T04:08:25.767Z,94.30
2018-07-24T04:10:56.528Z,94.90
2018-07-24T04:13:27.305Z,94.70
2018-07-24T04:15:58.052Z,94.90
2018-07-24T04:18:32.968Z,94.20
2018-07-24T04:21:03.693Z,94.30
2018-07-24T04:23:34.387Z,94.00
2018-07-24T04:26:05.231Z,94.00
2018-07-24T04:28:36.479Z,94.60
2018-07-24T04:31:07.462Z,94.80
2018-07-24T04:33:38.231Z,95.10
2018-07-24T04:36:09.068Z,94.80
2018-07-24T04:38:39.878Z,94.60
2018-07-24T04:46:11.416Z,94.40
2018-07-24T04:48:42.419Z,94.30
2018-07-24T04:53:43.829Z,93.90
2018-07-24T04:56:18.161Z,94.30
2018-07-24T05:01:21.199Z,93.00
2018-07-24T05:03:53.192Z,92.30
2018-07-24T05:06:24.781Z,90.50
2018-07-24T05:09:05.423Z,86.50
2018-07-24T05:11:40.776Z,80.50
2018-07-24T05:14:12.449Z,74.90
2018-07-24T05:16:44.218Z,71.00
2018-07-24T05:19:18.034Z,67.90
2018-07-24T05:22:03.773Z,65.50
2018-07-24T05:25:18.105Z,63.00
2018-07-24T05:28:27.806Z,61.50
2018-07-24T05:31:01.521Z,58.80
2018-07-24T05:33:33.052Z,56.00
2018-07-24T05:36:04.406Z,55.30
2018-07-24T05:38:36.839Z,54.70
2018-07-24T05:41:08.276Z,53.30
2018-07-24T05:43:39.546Z,51.80
2018-07-24T05:46:10.897Z,50.20
2018-07-24T05:48:42.405Z,49.50
2018-07-24T05:51:13.399Z,47.90
2018-07-24T05:53:44.533Z,48.10
2018-07-24T05:56:15.669Z,46.10
2018-07-24T05:58:47.916Z,45.60
2018-07-24T06:01:21.172Z,44.30
2018-07-24T06:06:56.640Z,43.20
2018-07-24T06:09:35.351Z,42.50
2018-07-24T06:12:17.228Z,41.70
2018-07-24T06:15:02.219Z,40.40
2018-07-24T08:03:29.221Z,31.30
2018-07-24T08:06:02.630Z,32.90
2018-07-24T08:08:33.818Z,32.30
2018-07-24T08:11:07.136Z,33.50
2018-07-24T08:14:19.511Z,33.30
2018-07-24T10:12:03.701Z,34.70
2018-07-24T10:17:12.729Z,36.40
2018-07-24T10:19:49.846Z,35.80
2018-07-24T10:22:24.313Z,35.60
2018-07-24T10:25:01.105Z,34.50
2018-07-24T10:27:50.277Z,34.60
2018-07-24T10:30:30.854Z,34.60
2018-07-24T10:33:02.283Z,35.70
2018-07-24T10:35:42.676Z,36.10
2018-07-24T10:38:17.869Z,35.50
2018-07-24T10:41:00.893Z,35.50
2018-07-24T10:43:32.291Z,35.10
2018-07-24T10:46:19.409Z,35.20
2018-07-24T11:10:57.170Z,34.10
2018-07-24T11:13:57.215Z,33.40
2018-07-24T11:16:55.330Z,33.30
2018-07-24T12:38:05.752Z,34.10
2018-07-24T12:40:36.907Z,33.70
2018-07-24T12:43:08.789Z,34.80
2018-07-24T12:45:39.847Z,34.90
2018-07-24T12:48:11.059Z,35.60
2018-07-24T14:22:04.900Z,37.80
2018-07-24T14:24:36.240Z,39.90
2018-07-24T14:27:07.268Z,41.20
2018-07-24T14:29:37.981Z,42.10
2018-07-24T14:32:08.846Z,42.60
2018-07-24T14:34:39.711Z,43.00
2018-07-24T14:37:10.626Z,43.20
2018-07-24T14:39:41.451Z,43.80
2018-07-24T14:42:12.260Z,44.20
2018-07-24T14:44:43.115Z,44.70
2018-07-24T14:47:13.921Z,44.70
2018-07-24T14:49:44.672Z,44.30
2018-07-24T14:52:15.507Z,44.50
2018-07-24T14:54:46.200Z,44.90
2018-07-24T14:57:17.065Z,44.20
2018-07-24T14:59:47.843Z,44.50
2018-07-24T15:02:18.689Z,44.60
2018-07-24T15:04:49.554Z,44.40
2018-07-24T15:07:20.377Z,44.40
2018-07-24T15:09:51.149Z,45.40
2018-07-24T15:12:21.925Z,45.50
2018-07-24T15:14:52.681Z,45.90
2018-07-24T15:17:23.512Z,45.90
2018-07-24T15:19:54.216Z,46.20
2018-07-24T15:22:25.791Z,46.50
2018-07-24T15:25:00.177Z,46.60
2018-07-24T15:27:35.548Z,46.20
2018-07-24T15:32:41.692Z,47.50
2018-07-24T15:35:14.211Z,47.90
2018-07-24T15:37:45.678Z,47.40
2018-07-24T15:40:18.789Z,47.70
2018-07-24T15:42:49.843Z,47.90
2018-07-24T15:45:20.801Z,48.10
2018-07-24T15:47:51.838Z,48.60
2018-07-24T15:50:22.890Z,49.30
2018-07-24T15:52:53.803Z,49.10
2018-07-24T15:55:24.694Z,49.60
2018-07-24T15:57:55.749Z,50.20
2018-07-24T16:00:26.719Z,49.90
2018-07-24T16:02:57.696Z,50.00
2018-07-24T16:05:28.993Z,49.80
2018-07-24T16:08:01.487Z,50.10
2018-07-24T16:10:36.875Z,50.40
2018-07-24T16:13:09.191Z,50.80
2018-07-24T16:15:47.128Z,50.30
2018-07-24T16:18:19.805Z,50.70
2018-07-24T16:20:50.863Z,50.70
2018-07-24T16:23:22.387Z,50.90
2018-07-24T16:25:55.070Z,51.90
2018-07-24T16:28:31.719Z,50.90
2018-07-24T16:31:03.597Z,51.80
2018-07-24T16:33:35.745Z,51.60
2018-07-24T16:36:07.162Z,53.60
2018-07-24T16:38:38.674Z,52.90
2018-07-24T16:41:09.861Z,53.00
2018-07-24T16:43:40.973Z,53.40
2018-07-24T16:46:12.013Z,53.30
2018-07-24T16:52:03.910Z,55.90
2018-07-24T16:59:35.587Z,56.70
2018-07-24T17:04:38.128Z,57.60
2018-07-24T17:07:10.090Z,55.70
2018-07-24T17:09:40.964Z,54.70
2018-07-24T17:12:12.842Z,55.50
2018-07-24T17:14:43.651Z,58.30
2018-07-24T17:17:15.518Z,56.30
2018-07-24T17:19:46.433Z,57.00
2018-07-24T17:22:17.644Z,56.30
2018-07-24T17:24:49.797Z,57.10
2018-07-24T17:27:20.639Z,57.30
2018-07-24T17:29:51.423Z,57.70
2018-07-24T17:32:22.336Z,57.30
2018-07-24T17:34:54.295Z,57.20
2018-07-24T17:37:25.165Z,57.40
2018-07-24T17:39:57.069Z,58.10
2018-07-24T17:42:29.130Z,61.10
2018-07-24T17:45:00.149Z,58.70
2018-07-24T17:47:30.955Z,60.40
2018-07-24T17:50:03.042Z,60.80
2018-07-24T17:52:34.964Z,61.20
2018-07-24T17:55:16.325Z,61.30
2018-07-24T18:07:40.695Z,60.90
2018-07-24T18:10:25.073Z,61.10
2018-07-24T18:12:58.857Z,61.60
2018-07-24T18:15:38.632Z,62.40
2018-07-24T18:18:09.845Z,63.30
2018-07-24T18:20:50.508Z,64.00
2018-07-24T18:23:22.154Z,65.00
2018-07-24T18:25:58.501Z,63.50
2018-07-24T18:28:52.319Z,63.00
2018-07-24T18:31:26.507Z,63.80
2018-07-24T18:46:01.426Z,65.00
2018-07-24T18:48:34.678Z,66.30
2018-07-24T18:51:23.827Z,66.80
2018-07-24T18:53:55.710Z,67.30
2018-07-24T18:58:59.588Z,68.70
2018-07-24T19:01:31.203Z,69.00
2018-07-24T19:04:03.946Z,69.40
2018-07-24T19:06:36.512Z,69.50
2018-07-24T19:09:11.762Z,70.00
2018-07-24T19:11:43.815Z,70.40
2018-07-24T19:14:16.751Z,70.90
2018-07-24T19:16:49.030Z,71.80
2018-07-24T19:19:23.003Z,71.60
2018-07-24T19:21:55.449Z,71.30
2018-07-24T19:24:27.105Z,71.60
2018-07-24T19:26:58.517Z,71.50
2018-07-24T19:29:30.287Z,72.80
2018-07-24T19:32:13.029Z,72.20
2018-07-24T19:35:06.068Z,72.90
2018-07-24T19:37:37.838Z,73.00
2018-07-24T19:45:50.041Z,73.10
2018-07-24T19:48:22.010Z,73.70
2018-07-24T19:50:54.322Z,75.00
2018-07-24T19:53:29.080Z,75.00
2018-07-24T19:56:02.108Z,75.00
2018-07-24T19:58:34.173Z,75.10
2018-07-24T20:01:20.999Z,75.00
2018-07-24T20:03:58.100Z,75.40
2018-07-24T20:06:29.544Z,75.20
2018-07-24T20:09:01.592Z,75.60
2018-07-24T20:11:32.747Z,75.70
2018-07-24T20:14:04.092Z,75.90
2018-07-24T20:16:38.434Z,76.30
2018-07-24T20:21:40.685Z,76.60
2018-07-24T20:24:12.928Z,76.90
2018-07-24T20:26:44.880Z,77.80
2018-07-24T20:29:16.337Z,79.00
2018-07-24T20:31:53.359Z,80.10
2018-07-24T20:34:24.661Z,80.20
2018-07-24T20:37:04.745Z,80.40
2018-07-24T20:39:47.155Z,80.50
2018-07-24T20:42:27.354Z,80.80
2018-07-24T20:45:01.096Z,81.20
2018-07-24T20:47:35.162Z,81.40
2018-07-24T20:50:09.316Z,81.40
2018-07-24T20:52:56.331Z,81.40
2018-07-24T20:55:50.287Z,81.40
2018-07-24T20:58:25.989Z,82.00
2018-07-24T21:00:58.246Z,83.30
2018-07-24T21:03:30.418Z,83.50
2018-07-24T21:06:14.868Z,83.90
2018-07-24T21:08:48.948Z,84.40
2018-07-24T21:12:12.449Z,84.50
2018-07-24T21:14:48.417Z,84.80
2018-07-24T21:17:19.622Z,84.70
2018-07-24T21:19:50.736Z,85.00
2018-07-24T21:22:21.734Z,85.40
2018-07-24T21:24:53.898Z,85.50
2018-07-24T21:27:26.182Z,86.00
2018-07-24T21:30:04.348Z,86.10
2018-07-24T21:32:35.417Z,86.40
2018-07-24T21:35:06.715Z,86.80
2018-07-24T21:37:39.621Z,86.90
2018-07-24T21:40:10.634Z,87.10
2018-07-24T21:47:48.974Z,87.90
2018-07-24T21:52:50.403Z,89.20
2018-07-24T21:55:21.585Z,88.50
2018-07-24T22:00:23.311Z,89.00
2018-07-24T22:02:54.386Z,89.00
2018-07-24T22:05:25.418Z,88.60
2018-07-24T22:07:56.451Z,88.80
2018-07-24T22:10:27.650Z,89.40
2018-07-24T22:12:58.973Z,89.40
2018-07-24T22:15:30.186Z,89.80
2018-07-24T22:18:01.865Z,90.00
2018-07-24T22:20:33.404Z,89.80
2018-07-24T22:23:04.653Z,90.00
2018-07-24T22:25:35.916Z,89.80
2018-07-24T22:30:38.751Z,89.80
2018-07-24T22:33:09.933Z,90.10
2018-07-24T22:35:41.159Z,90.10
2018-07-24T22:38:12.255Z,90.20
2018-07-24T22:43:13.889Z,90.20
2018-07-24T22:45:45.320Z,90.40
2018-07-24T22:48:16.502Z,90.60
2018-07-24T22:50:47.741Z,90.40
2018-07-24T22:53:18.797Z,90.50
2018-07-24T22:55:49.923Z,90.60
2018-07-24T22:58:21.089Z,90.90
2018-07-24T23:00:52.227Z,91.30
2018-07-24T23:03:23.239Z,91.20
2018-07-24T23:05:54.276Z,91.30
2018-07-24T23:08:25.388Z,91.40
2018-07-24T23:10:56.545Z,91.20
2018-07-24T23:13:28.879Z,91.40
2018-07-24T23:18:30.499Z,91.30
2018-07-24T23:21:01.691Z,91.10
2018-07-24T23:23:32.809Z,91.30
2018-07-24T23:26:03.819Z,91.20
2018-07-24T23:28:34.933Z,91.00
2018-07-24T23:31:06.325Z,91.10
2018-07-24T23:33:37.400Z,91.20
2018-07-24T23:38:39.323Z,91.30
2018-07-24T23:41:11.569Z,91.50
2018-07-24T23:44:02.938Z,91.60
2018-07-24T23:46:34.078Z,91.70
2018-07-24T23:49:05.154Z,91.70
2018-07-24T23:51:37.237Z,91.80
2018-07-24T23:54:09.848Z,91.70
2018-07-24T23:56:40.855Z,91.70
2018-07-24T23:59:11.926Z,91.80
